createdAt,value
2022-08-18T00:01:55.336Z,9.77
2022-08-18T00:04:35.306Z,6.33
2022-08-18T00:07:08.406Z,9.20
2022-08-18T00:09:37.358Z,7.43
2022-08-18T00:12:08.650Z,7.63
2022-08-18T00:14:35.619Z,5.80
2022-08-18T00:17:02.412Z,6.40
2022-08-18T00:19:45.518Z,5.97
2022-08-18T00:22:18.606Z,6.47
2022-08-18T00:24:50.668Z,8.57
2022-08-18T00:27:31.790Z,6.40
2022-08-18T00:30:02.036Z,6.43
2022-08-18T00:32:35.832Z,6.50
2022-08-18T00:35:13.925Z,8.03
2022-08-18T00:37:44.177Z,7.80
2022-08-18T00:40:22.033Z,6.53
2022-08-18T00:42:53.546Z,6.00
2022-08-18T00:45:25.673Z,7.50
2022-08-18T00:47:53.575Z,6.77
2022-08-18T00:50:28.693Z,6.07
2022-08-18T00:53:33.823Z,6.47
2022-08-18T00:56:09.290Z,6.43
2022-08-18T00:58:46.939Z,7.10
2022-08-18T01:01:14.633Z,6.73
2022-08-18T01:03:44.080Z,8.90
2022-08-18T01:06:18.149Z,6.53
2022-08-18T01:08:45.240Z,6.17
2022-08-18T01:11:13.974Z,7.03
2022-08-18T01:13:43.137Z,6.37
2022-08-18T01:16:31.906Z,6.67
2022-08-18T01:19:20.233Z,6.50
2022-08-18T01:21:54.482Z,6.23
2022-08-18T01:24:49.066Z,6.30
2022-08-18T01:27:18.646Z,6.07
2022-08-18T01:29:50.020Z,7.47
2022-08-18T01:32:23.429Z,8.33
2022-08-18T01:34:52.015Z,6.13
2022-08-18T01:37:22.776Z,6.27
2022-08-18T01:41:22.510Z,5.77
2022-08-18T01:42:40.661Z,6.10
2022-08-18T01:45:08.491Z,6.00
2022-08-18T01:47:47.513Z,6.40
2022-08-18T01:50:17.227Z,6.60
2022-08-18T01:52:46.585Z,5.70
2022-08-18T01:55:18.463Z,8.83
2022-08-18T01:57:49.039Z,6.00
2022-08-18T02:00:17.608Z,5.80
2022-08-18T02:02:57.890Z,5.83
2022-08-18T02:05:38.266Z,5.93
2022-08-18T02:08:08.710Z,7.43
2022-08-18T02:10:36.093Z,7.03
2022-08-18T02:13:03.137Z,9.80
2022-08-18T02:15:32.887Z,10.23
2022-08-18T02:18:02.727Z,9.60
2022-08-18T02:20:29.889Z,7.83
2022-08-18T02:22:59.123Z,6.73
2022-08-18T02:25:26.185Z,5.70
2022-08-18T02:27:57.181Z,5.17
2022-08-18T02:30:26.657Z,7.43
2022-08-18T02:32:53.556Z,6.30
2022-08-18T02:35:20.471Z,7.03
2022-08-18T02:37:48.375Z,5.40
2022-08-18T02:40:19.197Z,7.40
2022-08-18T02:42:50.356Z,5.57
2022-08-18T02:45:17.246Z,7.87
2022-08-18T02:47:56.074Z,4.93
2022-08-18T02:50:23.547Z,4.77
2022-08-18T02:52:50.479Z,5.20
2022-08-18T02:55:17.830Z,7.37
2022-08-18T02:57:50.163Z,5.47
2022-08-18T03:00:21.613Z,5.10
2022-08-18T03:02:55.732Z,5.93
2022-08-18T03:05:22.561Z,7.20
2022-08-18T03:07:51.342Z,10.53
2022-08-18T03:10:31.985Z,7.53
2022-08-18T03:13:08.475Z,6.60
2022-08-18T03:15:35.641Z,9.37
2022-08-18T03:18:05.651Z,6.23
2022-08-18T03:20:34.006Z,5.80
2022-08-18T03:23:05.508Z,5.27
2022-08-18T03:25:39.166Z,7.03
2022-08-18T03:28:14.848Z,6.77
2022-08-18T03:30:45.814Z,7.00
2022-08-18T03:33:12.873Z,5.43
2022-08-18T03:35:41.486Z,7.10
2022-08-18T03:38:08.563Z,8.07
2022-08-18T03:40:38.092Z,6.77
2022-08-18T03:43:50.135Z,5.50
2022-08-18T03:46:10.052Z,6.13
2022-08-18T03:48:40.917Z,9.80
2022-08-18T03:51:20.727Z,5.30
2022-08-18T03:53:48.773Z,7.43
2022-08-18T03:56:21.392Z,9.47
2022-08-18T03:58:52.720Z,6.67
2022-08-18T04:01:26.458Z,10.03
2022-08-18T04:04:17.275Z,6.70
2022-08-18T04:06:55.898Z,5.30
2022-08-18T04:09:25.333Z,7.57
2022-08-18T04:11:56.028Z,5.00
2022-08-18T04:14:25.192Z,7.03
2022-08-18T04:16:52.785Z,5.93
2022-08-18T04:19:26.867Z,7.97
2022-08-18T04:21:55.843Z,5.60
2022-08-18T04:24:22.656Z,7.33
2022-08-18T04:26:50.216Z,5.07
2022-08-18T04:29:21.579Z,6.70
2022-08-18T04:31:50.034Z,5.63
2022-08-18T04:34:30.509Z,6.27
2022-08-18T04:37:01.368Z,8.60
2022-08-18T04:39:29.763Z,5.53
2022-08-18T04:41:57.014Z,7.07
2022-08-18T04:44:24.082Z,6.10
2022-08-18T04:49:40.396Z,6.53
2022-08-18T04:52:40.175Z,7.47
2022-08-18T04:55:11.738Z,8.03
2022-08-18T04:57:45.691Z,7.03
2022-08-18T05:00:15.442Z,11.50
2022-08-18T05:02:42.511Z,7.30
2022-08-18T05:05:09.739Z,7.20
2022-08-18T05:07:37.058Z,6.20
2022-08-18T05:10:04.475Z,6.97
2022-08-18T05:12:31.485Z,9.00
2022-08-18T05:14:58.351Z,7.40
2022-08-18T05:17:30.320Z,6.47
2022-08-18T05:20:01.016Z,7.50
2022-08-18T05:22:31.071Z,6.73
2022-08-18T05:24:58.460Z,6.37
2022-08-18T05:27:25.364Z,8.80
2022-08-18T05:29:52.182Z,5.70
2022-08-18T05:32:42.522Z,6.17
2022-08-18T05:35:18.821Z,6.50
2022-08-18T05:38:16.486Z,7.17
2022-08-18T05:40:46.122Z,6.30
2022-08-18T05:43:15.204Z,6.17
2022-08-18T05:45:42.969Z,7.70
2022-08-18T05:48:14.287Z,5.57
2022-08-18T05:50:41.551Z,9.20
2022-08-18T05:53:14.706Z,6.87
2022-08-18T05:56:10.559Z,6.10
2022-08-18T05:58:42.119Z,6.23
2022-08-18T06:01:30.238Z,8.80
2022-08-18T06:04:49.451Z,9.43
2022-08-18T06:07:41.237Z,9.87
2022-08-18T06:10:09.928Z,8.90
2022-08-18T06:12:50.520Z,10.10
2022-08-18T06:15:39.942Z,10.10
2022-08-18T06:18:43.383Z,9.00
2022-08-18T06:21:25.547Z,8.80
2022-08-18T06:24:20.621Z,9.00
2022-08-18T06:26:53.291Z,10.03
2022-08-18T06:29:39.938Z,9.30
2022-08-18T06:32:14.566Z,11.53
2022-08-18T06:35:37.706Z,8.20
2022-08-18T06:38:38.507Z,8.90
2022-08-18T06:41:43.079Z,8.40
2022-08-18T06:44:19.820Z,13.87
2022-08-18T06:47:06.754Z,9.23
2022-08-18T06:49:55.340Z,8.03
2022-08-18T06:52:31.450Z,10.40
2022-08-18T06:55:14.298Z,9.77
2022-08-18T06:57:55.834Z,7.37
2022-08-18T07:00:26.454Z,7.47
2022-08-18T07:03:11.430Z,6.63
2022-08-18T07:05:56.030Z,6.80
2022-08-18T07:08:39.704Z,7.97
2022-08-18T07:11:28.481Z,6.60
2022-08-18T07:14:15.468Z,9.13
2022-08-18T07:16:58.387Z,9.20
2022-08-18T07:19:30.103Z,9.63
2022-08-18T07:22:17.059Z,11.47
2022-08-18T07:24:53.153Z,6.70
2022-08-18T07:27:49.026Z,8.13
2022-08-18T07:30:30.190Z,7.30
2022-08-18T07:33:13.125Z,11.03
2022-08-18T07:35:58.802Z,8.00
2022-08-18T07:38:53.404Z,7.00
2022-08-18T07:41:27.118Z,9.60
2022-08-18T07:44:16.554Z,7.93
2022-08-18T07:47:22.523Z,9.17
2022-08-18T07:50:18.316Z,8.37
2022-08-18T07:53:17.680Z,6.47
2022-08-18T07:55:52.364Z,12.87
2022-08-18T07:58:34.347Z,11.83
2022-08-18T08:01:28.414Z,10.77
2022-08-18T08:04:49.827Z,10.47
2022-08-18T08:07:56.674Z,8.43
2022-08-18T08:10:51.831Z,11.00
2022-08-18T08:13:51.279Z,7.33
2022-08-18T08:16:46.146Z,7.00
2022-08-18T08:19:59.403Z,10.20
2022-08-18T08:23:01.355Z,8.80
2022-08-18T08:26:19.302Z,7.10
2022-08-18T08:29:12.679Z,11.73
2022-08-18T08:32:03.595Z,7.27
2022-08-18T08:35:05.658Z,6.63
2022-08-18T08:37:51.971Z,7.40
2022-08-18T08:40:53.751Z,7.23
2022-08-18T08:43:42.746Z,6.43
2022-08-18T08:46:30.980Z,6.10
2022-08-18T08:49:25.819Z,5.87
2022-08-18T08:52:23.817Z,7.87
2022-08-18T08:55:04.865Z,6.07
2022-08-18T08:57:41.309Z,6.03
2022-08-18T09:00:10.956Z,6.40
2022-08-18T09:03:10.229Z,7.87
2022-08-18T09:05:49.316Z,6.23
2022-08-18T09:08:46.885Z,6.20
2022-08-18T09:11:39.646Z,7.10
2022-08-18T09:14:31.488Z,6.03
2022-08-18T09:17:15.804Z,6.63
2022-08-18T09:20:19.707Z,6.37
2022-08-18T09:23:00.212Z,6.10
2022-08-18T09:25:42.415Z,6.73
2022-08-18T09:28:20.612Z,6.13
2022-08-18T09:31:08.823Z,6.27
2022-08-18T09:33:50.153Z,5.97
2022-08-18T09:36:20.479Z,5.87
2022-08-18T09:39:20.691Z,8.70
2022-08-18T09:42:07.460Z,5.73
2022-08-18T09:44:46.648Z,5.53
2022-08-18T09:47:34.947Z,6.07
2022-08-18T09:50:06.341Z,7.23
2022-08-18T09:52:37.595Z,6.10
2022-08-18T09:55:18.174Z,5.60
2022-08-18T09:57:48.251Z,6.07
2022-08-18T10:00:33.405Z,5.83
2022-08-18T10:03:04.577Z,6.53
2022-08-18T10:05:32.360Z,6.93
2022-08-18T10:08:42.775Z,5.70
2022-08-18T10:11:42.655Z,5.50
2022-08-18T10:14:32.816Z,8.23
2022-08-18T10:17:23.877Z,7.57
2022-08-18T10:19:52.046Z,6.50
2022-08-18T10:22:39.246Z,7.43
2022-08-18T10:27:58.490Z,8.73
2022-08-18T10:34:01.691Z,6.60
2022-08-18T10:36:59.026Z,6.77
2022-08-18T10:39:42.506Z,9.17
2022-08-18T10:42:30.952Z,7.00
2022-08-18T10:45:13.127Z,6.37
2022-08-18T10:48:00.107Z,7.00
2022-08-18T10:50:45.013Z,6.63
2022-08-18T10:53:47.624Z,7.07
2022-08-18T10:56:33.644Z,7.87
2022-08-18T10:59:28.619Z,8.10
2022-08-18T11:02:39.027Z,8.63
2022-08-18T11:05:09.783Z,6.20
2022-08-18T11:07:39.614Z,5.70
2022-08-18T11:10:57.568Z,7.13
2022-08-18T11:13:45.205Z,6.60
2022-08-18T11:16:26.247Z,7.23
2022-08-18T11:19:05.326Z,6.10
2022-08-18T11:21:42.112Z,5.70
2022-08-18T11:24:45.010Z,5.83
2022-08-18T11:27:30.375Z,6.23
2022-08-18T11:30:06.703Z,8.43
2022-08-18T11:32:51.404Z,10.85
2022-08-18T11:35:31.721Z,8.47
2022-08-18T11:38:04.576Z,6.13
2022-08-18T11:41:08.764Z,8.03
2022-08-18T11:43:42.467Z,7.93
2022-08-18T11:46:30.449Z,6.85
2022-08-18T11:49:07.795Z,7.22
2022-08-18T11:51:36.597Z,6.35
2022-08-18T11:54:24.786Z,6.70
2022-08-18T11:56:52.274Z,6.63
2022-08-18T11:59:53.896Z,6.57
2022-08-18T12:02:18.275Z,6.67
2022-08-18T12:04:50.841Z,9.13
2022-08-18T12:07:36.207Z,7.03
2022-08-18T12:10:28.421Z,7.43
2022-08-18T12:13:00.677Z,7.90
2022-08-18T12:15:43.857Z,7.30
2022-08-18T12:18:26.041Z,7.50
2022-08-18T12:20:59.567Z,6.73
2022-08-18T12:23:38.957Z,7.43
2022-08-18T12:26:27.306Z,6.97
2022-08-18T12:29:05.312Z,6.97
2022-08-18T12:31:47.439Z,7.05
2022-08-18T12:34:15.404Z,7.47
2022-08-18T12:36:42.670Z,7.00
2022-08-18T12:39:13.637Z,6.57
2022-08-18T12:41:43.173Z,6.60
2022-08-18T12:47:02.864Z,7.25
2022-08-18T12:49:33.188Z,6.75
2022-08-18T12:52:03.378Z,6.90
2022-08-18T12:54:32.615Z,9.90
2022-08-18T12:57:01.775Z,7.15
2022-08-18T12:59:33.106Z,7.25
2022-08-18T13:02:04.885Z,6.63
2022-08-18T13:04:31.737Z,6.45
2022-08-18T13:07:05.668Z,5.90
2022-08-18T13:09:53.753Z,8.82
2022-08-18T13:12:25.689Z,7.05
2022-08-18T13:14:55.393Z,7.00
2022-08-18T13:17:32.691Z,7.15
2022-08-18T13:20:13.753Z,6.80
2022-08-18T13:22:41.386Z,6.65
2022-08-18T13:25:11.697Z,7.88
2022-08-18T13:30:31.159Z,7.10
2022-08-18T13:33:06.100Z,7.57
2022-08-18T13:35:52.153Z,34.58
2022-08-18T13:38:26.071Z,17.52
2022-08-18T13:40:58.738Z,7.47
2022-08-18T13:43:32.363Z,7.90
2022-08-18T13:46:01.434Z,7.40
2022-08-18T13:48:32.589Z,7.47
2022-08-18T13:51:01.761Z,7.30
2022-08-18T13:53:31.592Z,7.83
2022-08-18T13:55:58.844Z,7.25
2022-08-18T13:58:27.117Z,6.65
2022-08-18T14:01:22.902Z,6.50
2022-08-18T14:03:47.366Z,6.78
2022-08-18T14:06:22.787Z,6.90
2022-08-18T14:08:54.839Z,9.60
2022-08-18T14:11:32.802Z,7.63
2022-08-18T14:14:01.946Z,7.93
2022-08-18T14:16:29.356Z,5.97
2022-08-18T14:19:17.701Z,7.30
2022-08-18T14:22:07.333Z,6.95
2022-08-18T14:24:58.350Z,7.47
2022-08-18T14:27:35.161Z,7.97
2022-08-18T14:30:09.535Z,9.90
2022-08-18T14:32:38.446Z,7.97
2022-08-18T14:35:33.245Z,7.18
2022-08-18T14:38:02.607Z,6.82
2022-08-18T14:40:31.356Z,14.23
2022-08-18T14:42:58.615Z,7.40
2022-08-18T14:45:31.418Z,8.00
2022-08-18T14:48:01.821Z,9.30
2022-08-18T14:50:33.556Z,9.85
2022-08-18T14:53:02.031Z,9.38
2022-08-18T14:55:29.057Z,12.77
2022-08-18T14:57:58.613Z,9.30
2022-08-18T15:00:29.250Z,9.27
2022-08-18T15:02:59.532Z,8.55
2022-08-18T15:05:34.544Z,15.57
2022-08-18T15:08:03.947Z,8.50
2022-08-18T15:10:31.597Z,10.27
2022-08-18T15:12:59.750Z,9.70
2022-08-18T15:15:28.204Z,14.00
2022-08-18T15:18:14.947Z,9.90
2022-08-18T15:21:19.602Z,8.50
2022-08-18T15:24:23.726Z,9.57
2022-08-18T15:27:06.058Z,10.20
2022-08-18T15:29:33.426Z,26.53
2022-08-18T15:32:10.363Z,27.53
2022-08-18T15:34:46.217Z,22.63
2022-08-18T15:37:16.056Z,29.23
2022-08-18T15:39:47.725Z,19.30
2022-08-18T15:42:23.800Z,18.10
2022-08-18T15:44:53.734Z,20.50
2022-08-18T15:47:21.324Z,18.00
2022-08-18T15:49:48.683Z,14.50
2022-08-18T15:52:17.922Z,20.23
2022-08-18T15:54:50.380Z,15.13
2022-08-18T15:57:40.028Z,12.97
2022-08-18T16:00:05.753Z,36.27
2022-08-18T16:02:35.712Z,19.63
2022-08-18T16:05:10.268Z,19.47
2022-08-18T16:07:41.212Z,19.80
2022-08-18T16:10:22.819Z,9.23
2022-08-18T16:12:50.136Z,13.63
2022-08-18T16:15:21.661Z,9.00
2022-08-18T16:17:50.862Z,11.63
2022-08-18T16:20:23.977Z,18.00
2022-08-18T16:22:54.072Z,13.07
2022-08-18T16:25:21.410Z,8.60
2022-08-18T16:27:51.804Z,8.33
2022-08-18T16:30:22.580Z,8.93
2022-08-18T16:32:50.268Z,8.50
2022-08-18T16:35:18.715Z,8.57
2022-08-18T16:37:47.386Z,9.30
2022-08-18T16:40:15.123Z,8.20
2022-08-18T16:42:42.156Z,7.87
2022-08-18T16:45:10.601Z,8.40
2022-08-18T16:47:41.358Z,11.80
2022-08-18T16:50:11.892Z,9.20
2022-08-18T16:52:42.458Z,11.10
2022-08-18T16:55:11.733Z,8.67
2022-08-18T16:57:59.122Z,8.20
2022-08-18T17:00:54.573Z,11.30
2022-08-18T17:03:43.526Z,17.20
2022-08-18T17:06:14.477Z,10.30
2022-08-18T17:08:42.847Z,11.13
2022-08-18T17:11:14.777Z,9.40
2022-08-18T17:13:43.312Z,10.73
2022-08-18T17:16:11.398Z,8.87
2022-08-18T17:18:40.077Z,10.17
2022-08-18T17:21:10.189Z,13.63
2022-08-18T17:23:39.211Z,13.17
2022-08-18T17:26:10.493Z,17.63
2022-08-18T17:28:43.958Z,14.63
2022-08-18T17:31:21.242Z,13.77
2022-08-18T17:33:49.342Z,10.63
2022-08-18T17:36:22.835Z,10.80
2022-08-18T17:38:54.028Z,31.00
2022-08-18T17:41:22.624Z,47.43
2022-08-18T17:43:52.320Z,13.43
2022-08-18T17:46:27.703Z,16.93
2022-08-18T17:49:14.360Z,18.00
2022-08-18T17:51:48.904Z,16.43
2022-08-18T17:54:36.919Z,17.30
2022-08-18T17:57:18.566Z,11.17
2022-08-18T18:00:02.029Z,11.67
2022-08-18T18:02:33.054Z,12.90
2022-08-18T18:05:01.590Z,11.20
2022-08-18T18:07:50.798Z,11.73
2022-08-18T18:11:04.288Z,12.60
2022-08-18T18:13:33.890Z,13.37
2022-08-18T18:16:20.067Z,12.97
2022-08-18T18:19:01.173Z,11.97
2022-08-18T18:22:00.601Z,11.77
2022-08-18T18:24:17.256Z,11.03
2022-08-18T18:26:52.258Z,11.43
2022-08-18T18:29:38.302Z,13.20
2022-08-18T18:32:28.155Z,16.33
2022-08-18T18:35:27.167Z,16.40
2022-08-18T18:38:04.144Z,11.50
2022-08-18T18:40:38.307Z,12.37
2022-08-18T18:43:25.386Z,13.30
2022-08-18T18:46:09.468Z,19.33
2022-08-18T18:48:53.145Z,13.83
2022-08-18T18:51:44.067Z,13.10
2022-08-18T18:54:35.992Z,13.17
2022-08-18T18:57:10.872Z,16.80
2022-08-18T19:00:06.906Z,14.00
2022-08-18T19:02:45.601Z,13.23
2022-08-18T19:05:17.602Z,13.90
2022-08-18T19:08:13.293Z,15.77
2022-08-18T19:10:58.484Z,13.70
2022-08-18T19:13:33.440Z,14.23
2022-08-18T19:16:28.826Z,17.17
2022-08-18T19:19:37.625Z,14.63
2022-08-18T19:22:05.258Z,18.30
2022-08-18T19:24:39.451Z,14.40
2022-08-18T19:27:14.385Z,15.93
2022-08-18T19:29:43.995Z,13.73
2022-08-18T19:32:19.885Z,14.47
2022-08-18T19:34:52.428Z,20.33
2022-08-18T19:37:31.273Z,15.70
2022-08-18T19:40:05.372Z,15.03
2022-08-18T19:42:39.932Z,17.83
2022-08-18T19:45:16.257Z,15.07
2022-08-18T19:48:02.209Z,15.40
2022-08-18T19:50:45.514Z,17.20
2022-08-18T19:53:35.452Z,16.93
2022-08-18T19:56:24.324Z,19.10
2022-08-18T19:59:41.127Z,19.90
2022-08-18T20:02:32.876Z,15.83
2022-08-18T20:05:39.143Z,16.83
2022-08-18T20:08:30.826Z,18.17
2022-08-18T20:11:41.155Z,18.20
2022-08-18T20:14:19.285Z,24.80
2022-08-18T20:17:04.820Z,24.60
2022-08-18T20:19:53.553Z,31.37
2022-08-18T20:22:24.405Z,32.87
2022-08-18T20:25:11.266Z,42.10
2022-08-18T20:28:00.983Z,41.17
2022-08-18T20:30:30.336Z,48.00
2022-08-18T20:33:20.476Z,49.73
2022-08-18T20:35:51.984Z,58.87
2022-08-18T20:38:34.494Z,66.43
2022-08-18T20:41:28.596Z,51.10
2022-08-18T20:44:15.819Z,52.93
2022-08-18T20:47:23.906Z,52.33
2022-08-18T20:50:21.784Z,51.77
2022-08-18T20:53:00.453Z,44.27
2022-08-18T20:55:59.391Z,47.53
2022-08-18T20:58:32.496Z,43.57
2022-08-18T21:01:02.543Z,39.73
2022-08-18T21:03:43.849Z,38.43
2022-08-18T21:06:14.214Z,36.80
2022-08-18T21:08:48.532Z,35.37
2022-08-18T21:11:31.974Z,37.20
2022-08-18T21:14:04.296Z,36.60
2022-08-18T21:16:39.419Z,31.87
2022-08-18T21:19:40.483Z,32.43
2022-08-18T21:22:14.862Z,34.30
2022-08-18T21:24:45.269Z,29.67
2022-08-18T21:27:31.991Z,28.90
2022-08-18T21:30:06.500Z,30.10
2022-08-18T21:32:36.500Z,33.20
2022-08-18T21:35:28.481Z,35.33
2022-08-18T21:38:01.438Z,33.07
2022-08-18T21:40:45.945Z,32.23
2022-08-18T21:43:33.695Z,31.17
2022-08-18T21:46:03.112Z,32.57
2022-08-18T21:48:35.605Z,31.30
2022-08-18T21:51:06.625Z,23.80
2022-08-18T21:53:35.710Z,20.23
2022-08-18T21:56:20.789Z,16.87
2022-08-18T21:58:47.701Z,16.40
2022-08-18T22:01:28.777Z,19.30
2022-08-18T22:04:18.228Z,19.27
2022-08-18T22:07:00.858Z,18.73
2022-08-18T22:09:51.385Z,14.27
2022-08-18T22:12:47.508Z,13.03
2022-08-18T22:15:31.785Z,13.93
2022-08-18T22:18:05.800Z,12.50
2022-08-18T22:20:47.616Z,13.80
2022-08-18T22:23:32.907Z,11.53
2022-08-18T22:26:16.054Z,11.03
2022-08-18T22:29:02.563Z,12.43
2022-08-18T22:31:39.187Z,12.53
2022-08-18T22:34:38.660Z,14.00
2022-08-18T22:37:24.509Z,12.43
2022-08-18T22:39:55.126Z,12.80
2022-08-18T22:42:25.022Z,14.13
2022-08-18T22:44:52.401Z,15.20
2022-08-18T22:47:20.747Z,15.00
2022-08-18T22:49:47.985Z,15.17
2022-08-18T22:52:29.577Z,14.50
2022-08-18T22:55:09.848Z,15.73
2022-08-18T22:57:38.773Z,14.20
2022-08-18T23:00:10.672Z,15.40
2022-08-18T23:02:48.331Z,14.50
2022-08-18T23:05:15.254Z,13.07
2022-08-18T23:10:23.620Z,13.23
2022-08-18T23:12:53.691Z,15.13
2022-08-18T23:15:20.869Z,13.70
2022-08-18T23:17:48.529Z,13.90
2022-08-18T23:20:19.264Z,13.17
2022-08-18T23:22:47.797Z,12.63
2022-08-18T23:25:14.981Z,12.97
2022-08-18T23:27:43.016Z,12.77
2022-08-18T23:30:12.570Z,13.40
2022-08-18T23:32:39.387Z,13.57
2022-08-18T23:35:10.409Z,11.70
2022-08-18T23:37:38.183Z,13.27
2022-08-18T23:40:05.693Z,13.80
2022-08-18T23:42:32.802Z,15.10
2022-08-18T23:45:03.810Z,16.20
2022-08-18T23:47:33.712Z,13.40
2022-08-18T23:50:02.726Z,14.03
2022-08-18T23:52:32.844Z,13.10
2022-08-18T23:55:03.357Z,14.57
2022-08-18T23:57:30.226Z,16.93
